createdAt,value
2018-01-17T00:00:39.061Z,983.18
2018-01-17T00:01:39.665Z,983.18
2018-01-17T00:02:40.266Z,983.24
2018-01-17T00:03:40.869Z,983.13
2018-01-17T00:04:41.468Z,983.12
2018-01-17T00:05:42.065Z,982.95
2018-01-17T00:06:42.676Z,983.01
2018-01-17T00:07:43.341Z,982.98
2018-01-17T00:08:43.886Z,982.91
2018-01-17T00:09:44.485Z,982.93
2018-01-17T00:10:45.077Z,983.00
2018-01-17T00:11:45.677Z,983.03
2018-01-17T00:12:46.281Z,983.03
2018-01-17T00:13:46.888Z,983.01
2018-01-17T00:14:47.479Z,982.99
2018-01-17T00:15:48.071Z,982.94
2018-01-17T00:16:48.676Z,982.89
2018-01-17T00:17:49.268Z,982.90
2018-01-17T00:18:49.859Z,982.82
2018-01-17T00:19:50.464Z,982.79
2018-01-17T00:20:51.077Z,982.91
2018-01-17T00:21:51.690Z,982.93
2018-01-17T00:22:52.279Z,982.92
2018-01-17T00:23:52.903Z,982.89
2018-01-17T00:24:54.467Z,982.83
2018-01-17T00:25:55.054Z,982.86
2018-01-17T00:26:55.653Z,982.84
2018-01-17T00:27:56.238Z,982.82
2018-01-17T00:28:56.838Z,982.79
2018-01-17T00:29:57.437Z,982.88
2018-01-17T00:30:58.036Z,982.94
2018-01-17T00:31:58.633Z,982.98
2018-01-17T00:32:59.222Z,982.96
2018-01-17T00:33:59.815Z,983.23
2018-01-17T00:35:00.417Z,983.12
2018-01-17T00:36:01.019Z,983.21
2018-01-17T00:37:01.619Z,983.08
2018-01-17T00:38:02.232Z,983.05
2018-01-17T00:39:02.830Z,983.15
2018-01-17T00:40:03.425Z,983.21
2018-01-17T00:41:04.017Z,983.18
2018-01-17T00:42:04.606Z,983.17
2018-01-17T00:43:05.202Z,983.16
2018-01-17T00:44:05.786Z,983.03
2018-01-17T00:45:06.369Z,983.12
2018-01-17T00:46:06.961Z,983.15
2018-01-17T00:47:07.560Z,983.07
2018-01-17T00:48:08.151Z,982.92
2018-01-17T00:49:08.740Z,983.05
2018-01-17T00:50:09.336Z,982.97
2018-01-17T00:51:09.935Z,982.95
2018-01-17T00:52:10.526Z,982.94
2018-01-17T00:53:11.119Z,983.00
2018-01-17T00:54:11.712Z,982.96
2018-01-17T00:55:12.303Z,982.93
2018-01-17T00:56:12.886Z,982.91
2018-01-17T00:57:13.476Z,982.93
2018-01-17T00:58:14.063Z,983.09
2018-01-17T00:59:14.653Z,983.00
2018-01-17T01:00:15.250Z,982.90
2018-01-17T01:01:15.867Z,983.15
2018-01-17T01:02:16.486Z,983.09
2018-01-17T01:03:17.088Z,983.05
2018-01-17T01:04:17.671Z,983.15
2018-01-17T01:05:18.266Z,983.17
2018-01-17T01:06:18.864Z,983.15
2018-01-17T01:07:19.463Z,983.19
2018-01-17T01:08:20.069Z,983.24
2018-01-17T01:09:20.666Z,983.19
2018-01-17T01:10:21.263Z,983.22
2018-01-17T01:11:21.862Z,983.06
2018-01-17T01:12:22.460Z,983.12
2018-01-17T01:13:23.060Z,983.09
2018-01-17T01:14:23.656Z,983.15
2018-01-17T01:15:24.254Z,983.11
2018-01-17T01:16:24.845Z,983.20
2018-01-17T01:17:25.441Z,983.27
2018-01-17T01:18:26.030Z,983.30
2018-01-17T01:19:26.614Z,983.05
2018-01-17T01:20:27.213Z,983.29
2018-01-17T01:21:27.816Z,983.17
2018-01-17T01:22:28.402Z,983.19
2018-01-17T01:23:29.000Z,983.37
2018-01-17T01:24:29.594Z,983.41
2018-01-17T01:25:30.181Z,983.17
2018-01-17T01:26:30.782Z,983.36
2018-01-17T01:27:31.388Z,983.38
2018-01-17T01:28:31.995Z,983.25
2018-01-17T01:29:32.594Z,983.31
2018-01-17T01:30:33.191Z,983.39
2018-01-17T01:31:33.772Z,983.33
2018-01-17T01:32:34.367Z,983.41
2018-01-17T01:33:34.979Z,983.39
2018-01-17T01:34:35.580Z,983.50
2018-01-17T01:35:36.175Z,983.48
2018-01-17T01:36:36.767Z,983.54
2018-01-17T01:37:37.405Z,983.28
2018-01-17T01:38:37.956Z,983.30
2018-01-17T01:39:38.558Z,983.30
2018-01-17T01:40:39.150Z,983.29
2018-01-17T01:41:39.744Z,983.34
2018-01-17T01:42:40.337Z,983.47
2018-01-17T01:43:40.921Z,983.37
2018-01-17T01:44:41.519Z,983.30
2018-01-17T01:45:42.126Z,983.35
2018-01-17T01:46:42.734Z,983.32
2018-01-17T01:47:43.334Z,983.38
2018-01-17T01:48:43.930Z,983.33
2018-01-17T01:49:44.529Z,983.46
2018-01-17T01:50:45.128Z,983.42
2018-01-17T01:51:45.714Z,983.40
2018-01-17T01:52:46.301Z,983.46
2018-01-17T01:53:46.901Z,983.45
2018-01-17T01:54:47.485Z,983.47
2018-01-17T01:55:48.078Z,983.46
2018-01-17T01:56:48.670Z,983.55
2018-01-17T01:57:49.269Z,983.48
2018-01-17T01:58:49.855Z,983.58
2018-01-17T01:59:50.448Z,983.59
2018-01-17T02:00:51.033Z,983.52
2018-01-17T02:01:51.626Z,983.58
2018-01-17T02:02:52.217Z,983.52
2018-01-17T02:03:52.817Z,983.53
2018-01-17T02:04:53.425Z,983.57
2018-01-17T02:05:54.022Z,983.58
2018-01-17T02:06:54.611Z,983.54
2018-01-17T02:07:55.204Z,983.58
2018-01-17T02:08:55.801Z,983.52
2018-01-17T02:09:56.386Z,983.53
2018-01-17T02:10:56.980Z,983.50
2018-01-17T02:11:57.572Z,983.56
2018-01-17T02:12:58.162Z,983.62
2018-01-17T02:13:58.756Z,983.63
2018-01-17T02:14:59.349Z,983.62
2018-01-17T02:15:59.940Z,983.52
2018-01-17T02:17:00.535Z,983.67
2018-01-17T02:18:01.126Z,983.71
2018-01-17T02:19:01.712Z,983.70
2018-01-17T02:20:02.310Z,983.76
2018-01-17T02:21:02.910Z,983.73
2018-01-17T02:22:03.512Z,983.70
2018-01-17T02:23:04.107Z,983.66
2018-01-17T02:24:04.692Z,983.68
2018-01-17T02:25:05.283Z,983.83
2018-01-17T02:26:05.878Z,983.80
2018-01-17T02:27:06.466Z,983.84
2018-01-17T02:28:07.060Z,983.82
2018-01-17T02:29:07.662Z,983.80
2018-01-17T02:30:08.253Z,983.71
2018-01-17T02:31:08.842Z,983.78
2018-01-17T02:32:09.435Z,983.68
2018-01-17T02:33:10.031Z,983.76
2018-01-17T02:34:10.619Z,983.68
2018-01-17T02:35:11.215Z,983.60
2018-01-17T02:36:11.805Z,983.67
2018-01-17T02:37:12.408Z,983.71
2018-01-17T02:38:13.006Z,983.71
2018-01-17T02:39:13.607Z,983.78
2018-01-17T02:40:14.205Z,983.75
2018-01-17T02:41:14.793Z,983.76
2018-01-17T02:42:15.394Z,983.75
2018-01-17T02:43:15.987Z,983.78
2018-01-17T02:44:16.575Z,983.73
2018-01-17T02:45:17.183Z,983.78
2018-01-17T02:46:17.778Z,983.82
2018-01-17T02:47:18.370Z,983.88
2018-01-17T02:48:18.964Z,983.85
2018-01-17T02:49:19.552Z,983.82
2018-01-17T02:50:20.150Z,983.86
2018-01-17T02:51:20.749Z,983.88
2018-01-17T02:52:21.351Z,983.87
2018-01-17T02:53:21.937Z,983.86
2018-01-17T02:54:22.528Z,983.93
2018-01-17T02:55:23.120Z,983.87
2018-01-17T02:56:23.717Z,983.90
2018-01-17T02:57:24.324Z,983.89
2018-01-17T02:58:24.918Z,983.87
2018-01-17T02:59:25.503Z,983.92
2018-01-17T03:00:26.094Z,983.97
2018-01-17T03:01:26.678Z,984.00
2018-01-17T03:02:27.268Z,983.93
2018-01-17T03:03:27.875Z,983.85
2018-01-17T03:04:28.474Z,983.95
2018-01-17T03:05:29.059Z,983.84
2018-01-17T03:06:29.661Z,983.96
2018-01-17T03:07:30.261Z,983.97
2018-01-17T03:08:30.852Z,983.93
2018-01-17T03:09:31.455Z,983.98
2018-01-17T03:10:32.061Z,983.97
2018-01-17T03:11:32.658Z,983.99
2018-01-17T03:12:33.248Z,983.99
2018-01-17T03:13:33.840Z,984.00
2018-01-17T03:14:34.434Z,983.96
2018-01-17T03:15:35.024Z,983.98
2018-01-17T03:16:35.621Z,983.93
2018-01-17T03:17:36.222Z,984.00
2018-01-17T03:18:36.816Z,983.83
2018-01-17T03:19:37.413Z,983.96
2018-01-17T03:20:38.015Z,983.94
2018-01-17T03:21:38.601Z,983.97
2018-01-17T03:22:39.192Z,983.95
2018-01-17T03:23:39.777Z,983.94
2018-01-17T03:24:40.377Z,984.00
2018-01-17T03:25:40.978Z,984.00
2018-01-17T03:26:41.566Z,984.06
2018-01-17T03:27:42.172Z,984.06
2018-01-17T03:28:42.772Z,984.12
2018-01-17T03:29:43.376Z,984.00
2018-01-17T03:30:43.982Z,984.00
2018-01-17T03:31:44.632Z,983.97
2018-01-17T03:32:45.177Z,984.09
2018-01-17T03:33:45.761Z,984.07
2018-01-17T03:34:46.363Z,984.09
2018-01-17T03:35:46.955Z,984.08
2018-01-17T03:36:47.542Z,983.88
2018-01-17T03:37:48.132Z,984.12
2018-01-17T03:38:48.729Z,984.09
2018-01-17T03:39:49.328Z,984.11
2018-01-17T03:40:49.927Z,984.03
2018-01-17T03:41:50.512Z,984.17
2018-01-17T03:42:51.109Z,984.21
2018-01-17T03:43:51.709Z,984.17
2018-01-17T03:44:52.290Z,984.18
2018-01-17T03:45:52.885Z,984.22
2018-01-17T03:46:53.476Z,984.29
2018-01-17T03:47:54.066Z,984.19
2018-01-17T03:48:54.658Z,984.22
2018-01-17T03:49:55.251Z,984.05
2018-01-17T03:50:55.841Z,984.15
2018-01-17T03:51:56.429Z,984.27
2018-01-17T03:52:57.022Z,984.32
2018-01-17T03:53:57.619Z,984.33
2018-01-17T03:54:58.216Z,984.34
2018-01-17T03:55:58.822Z,984.40
2018-01-17T03:56:59.414Z,984.42
2018-01-17T03:58:00.015Z,984.34
2018-01-17T03:59:00.605Z,984.39
2018-01-17T04:00:01.196Z,984.45
2018-01-17T04:01:01.787Z,984.43
2018-01-17T04:02:02.387Z,984.48
2018-01-17T04:03:02.980Z,984.44
2018-01-17T04:04:03.577Z,984.50
2018-01-17T04:05:04.167Z,984.56
2018-01-17T04:06:04.759Z,984.46
2018-01-17T04:07:05.357Z,984.52
2018-01-17T04:08:05.950Z,984.59
2018-01-17T04:09:06.554Z,984.56
2018-01-17T04:10:07.144Z,984.56
2018-01-17T04:11:07.730Z,984.59
2018-01-17T04:12:08.325Z,984.54
2018-01-17T04:13:08.911Z,984.46
2018-01-17T04:14:09.504Z,984.62
2018-01-17T04:15:10.107Z,984.70
2018-01-17T04:16:10.686Z,984.67
2018-01-17T04:17:11.274Z,984.71
2018-01-17T04:18:11.870Z,984.69
2018-01-17T04:19:12.476Z,984.80
2018-01-17T04:20:13.062Z,984.75
2018-01-17T04:21:13.664Z,984.72
2018-01-17T04:22:14.249Z,984.79
2018-01-17T04:23:14.833Z,984.93
2018-01-17T04:24:15.423Z,984.91
2018-01-17T04:25:16.059Z,984.91
2018-01-17T04:26:16.609Z,985.08
2018-01-17T04:27:17.207Z,985.12
2018-01-17T04:28:17.809Z,985.23
2018-01-17T04:29:18.397Z,985.24
2018-01-17T04:30:18.995Z,985.32
2018-01-17T04:31:19.626Z,985.46
2018-01-17T04:32:20.174Z,985.28
2018-01-17T04:33:20.770Z,985.23
2018-01-17T04:34:21.359Z,985.23
2018-01-17T04:35:21.951Z,985.33
2018-01-17T04:36:22.552Z,985.33
2018-01-17T04:37:23.146Z,985.33
2018-01-17T04:38:23.736Z,985.43
2018-01-17T04:39:24.338Z,985.55
2018-01-17T04:40:24.940Z,985.69
2018-01-17T04:41:25.537Z,985.70
2018-01-17T04:42:26.126Z,985.69
2018-01-17T04:43:26.718Z,985.68
2018-01-17T04:44:27.313Z,985.72
2018-01-17T04:45:27.909Z,985.68
2018-01-17T04:46:28.497Z,985.63
2018-01-17T04:47:29.078Z,985.66
2018-01-17T04:48:29.674Z,985.73
2018-01-17T04:49:30.276Z,985.79
2018-01-17T04:50:30.881Z,985.79
2018-01-17T04:51:31.482Z,985.67
2018-01-17T04:52:32.070Z,985.76
2018-01-17T04:53:32.652Z,985.74
2018-01-17T04:54:33.250Z,985.88
2018-01-17T04:55:33.830Z,985.92
2018-01-17T04:56:34.419Z,985.89
2018-01-17T04:57:35.010Z,985.97
2018-01-17T04:58:35.600Z,985.98
2018-01-17T04:59:36.183Z,985.92
2018-01-17T05:00:36.767Z,985.97
2018-01-17T05:01:37.349Z,985.92
2018-01-17T05:02:37.939Z,985.92
2018-01-17T05:03:38.535Z,985.97
2018-01-17T05:04:39.130Z,986.15
2018-01-17T05:05:39.712Z,986.16
2018-01-17T05:06:40.305Z,986.27
2018-01-17T05:07:40.915Z,985.97
2018-01-17T05:08:41.517Z,986.21
2018-01-17T05:09:42.114Z,986.30
2018-01-17T05:10:42.705Z,986.17
2018-01-17T05:11:43.295Z,986.20
2018-01-17T05:12:43.889Z,986.37
2018-01-17T05:13:44.474Z,986.40
2018-01-17T05:14:45.099Z,986.59
2018-01-17T05:15:45.729Z,986.70
2018-01-17T05:16:46.281Z,986.81
2018-01-17T05:17:46.866Z,986.84
2018-01-17T05:18:47.460Z,986.77
2018-01-17T05:19:48.044Z,986.89
2018-01-17T05:20:48.650Z,986.93
2018-01-17T05:21:49.231Z,986.91
2018-01-17T05:22:49.826Z,986.83
2018-01-17T05:23:50.408Z,986.96
2018-01-17T05:24:51.005Z,986.93
2018-01-17T05:25:51.601Z,986.91
2018-01-17T05:26:52.198Z,986.88
2018-01-17T05:27:52.794Z,986.95
2018-01-17T05:28:53.389Z,986.89
2018-01-17T05:29:53.979Z,986.85
2018-01-17T05:30:54.580Z,986.95
2018-01-17T05:31:55.178Z,986.93
2018-01-17T05:32:55.757Z,986.93
2018-01-17T05:33:56.346Z,986.96
2018-01-17T05:34:56.928Z,986.94
2018-01-17T05:35:57.517Z,986.98
2018-01-17T05:36:58.103Z,987.00
2018-01-17T05:37:58.692Z,987.02
2018-01-17T05:38:59.296Z,986.94
2018-01-17T05:39:59.890Z,987.03
2018-01-17T05:41:00.482Z,987.03
2018-01-17T05:42:01.076Z,987.03
2018-01-17T05:43:01.662Z,987.03
2018-01-17T05:44:02.241Z,987.00
2018-01-17T05:45:02.836Z,987.01
2018-01-17T05:46:03.414Z,987.08
2018-01-17T05:47:04.001Z,987.08
2018-01-17T05:48:04.591Z,987.12
2018-01-17T05:49:05.184Z,987.12
2018-01-17T05:50:05.777Z,987.13
2018-01-17T05:51:06.375Z,987.14
2018-01-17T05:52:06.960Z,987.17
2018-01-17T05:53:07.554Z,987.15
2018-01-17T05:54:08.147Z,987.16
2018-01-17T05:55:08.741Z,987.15
2018-01-17T05:56:09.326Z,987.15
2018-01-17T05:57:09.916Z,987.16
2018-01-17T05:58:10.499Z,987.17
2018-01-17T05:59:11.089Z,987.18
2018-01-17T06:00:11.688Z,987.20
2018-01-17T06:01:12.281Z,987.21
2018-01-17T06:02:12.878Z,987.22
2018-01-17T06:03:13.462Z,987.24
2018-01-17T06:04:14.058Z,987.29
2018-01-17T06:05:14.659Z,987.27
2018-01-17T06:06:15.245Z,987.27
2018-01-17T06:07:15.845Z,987.28
2018-01-17T06:08:16.439Z,987.26
2018-01-17T06:09:17.027Z,987.27
2018-01-17T06:10:17.616Z,987.33
2018-01-17T06:11:18.204Z,987.29
2018-01-17T06:12:18.795Z,987.29
2018-01-17T06:13:19.386Z,987.44
2018-01-17T06:14:19.977Z,987.36
2018-01-17T06:15:20.569Z,987.39
2018-01-17T06:16:21.173Z,987.39
2018-01-17T06:17:21.776Z,987.40
2018-01-17T06:18:22.368Z,987.29
2018-01-17T06:19:22.971Z,987.46
2018-01-17T06:20:23.566Z,987.49
2018-01-17T06:21:24.160Z,987.51
2018-01-17T06:22:24.743Z,987.48
2018-01-17T06:23:25.327Z,987.53
2018-01-17T06:24:25.915Z,987.49
2018-01-17T06:25:26.506Z,987.53
2018-01-17T06:26:27.108Z,987.56
2018-01-17T06:27:27.695Z,987.46
2018-01-17T06:28:28.294Z,987.56
2018-01-17T06:29:28.890Z,987.55
2018-01-17T06:30:29.486Z,987.47
2018-01-17T06:31:30.075Z,987.59
2018-01-17T06:32:30.691Z,987.57
2018-01-17T06:33:31.292Z,987.64
2018-01-17T06:34:31.887Z,987.34
2018-01-17T06:35:32.481Z,987.50
2018-01-17T06:36:33.071Z,987.54
2018-01-17T06:37:33.654Z,987.54
2018-01-17T06:38:34.243Z,987.55
2018-01-17T06:39:34.840Z,987.58
2018-01-17T06:40:35.443Z,987.74
2018-01-17T06:41:36.029Z,987.71
2018-01-17T06:42:36.615Z,987.75
2018-01-17T06:43:37.221Z,987.84
2018-01-17T06:44:37.806Z,987.94
2018-01-17T06:45:38.404Z,988.01
2018-01-17T06:46:38.995Z,988.02
2018-01-17T06:47:39.595Z,988.24
2018-01-17T06:48:40.191Z,988.33
2018-01-17T06:49:40.774Z,988.28
2018-01-17T06:50:41.368Z,988.36
2018-01-17T06:51:41.972Z,988.15
2018-01-17T06:52:42.569Z,988.28
2018-01-17T06:53:43.168Z,988.24
2018-01-17T06:54:43.772Z,988.26
2018-01-17T06:55:44.370Z,988.37
2018-01-17T06:56:44.966Z,988.33
2018-01-17T06:57:45.558Z,988.29
2018-01-17T06:58:46.196Z,988.44
2018-01-17T06:59:46.767Z,988.53
2018-01-17T07:00:47.358Z,988.58
2018-01-17T07:01:47.955Z,988.70
2018-01-17T07:02:48.547Z,988.76
2018-01-17T07:03:49.141Z,988.80
2018-01-17T07:04:49.736Z,988.77
2018-01-17T07:05:50.324Z,988.83
2018-01-17T07:06:50.920Z,988.81
2018-01-17T07:07:51.524Z,988.78
2018-01-17T07:08:52.122Z,988.87
2018-01-17T07:09:52.710Z,988.84
2018-01-17T07:10:53.298Z,988.93
2018-01-17T07:11:53.889Z,988.90
2018-01-17T07:12:54.500Z,988.96
2018-01-17T07:13:55.088Z,988.99
2018-01-17T07:14:55.673Z,988.95
2018-01-17T07:15:56.275Z,988.91
2018-01-17T07:16:56.863Z,988.89
2018-01-17T07:17:57.458Z,988.95
2018-01-17T07:18:58.056Z,988.99
2018-01-17T07:19:58.655Z,989.04
2018-01-17T07:20:59.242Z,989.11
2018-01-17T07:21:59.839Z,989.12
2018-01-17T07:23:00.429Z,989.12
2018-01-17T07:24:01.031Z,989.14
2018-01-17T07:25:01.626Z,989.22
2018-01-17T07:26:02.226Z,989.21
2018-01-17T07:27:02.826Z,989.23
2018-01-17T07:28:03.420Z,989.21
2018-01-17T07:29:04.013Z,989.26
2018-01-17T07:30:04.613Z,989.22
2018-01-17T07:31:05.219Z,989.30
2018-01-17T07:32:05.824Z,989.30
2018-01-17T07:33:06.412Z,989.29
2018-01-17T07:34:06.998Z,989.28
2018-01-17T07:35:07.589Z,989.27
2018-01-17T07:36:08.182Z,989.32
2018-01-17T07:37:08.780Z,989.25
2018-01-17T07:38:09.384Z,989.34
2018-01-17T07:39:09.984Z,989.36
2018-01-17T07:40:10.586Z,989.21
2018-01-17T07:41:11.180Z,989.32
2018-01-17T07:42:11.774Z,989.29
2018-01-17T07:43:12.367Z,989.28
2018-01-17T07:44:12.975Z,989.33
2018-01-17T07:45:13.559Z,989.33
2018-01-17T07:46:14.180Z,989.36
2018-01-17T07:47:14.757Z,989.35
2018-01-17T07:48:15.347Z,989.39
2018-01-17T07:49:15.945Z,989.45
2018-01-17T07:50:16.553Z,989.31
2018-01-17T07:51:17.156Z,989.35
2018-01-17T07:52:17.759Z,989.43
2018-01-17T07:53:18.347Z,989.45
2018-01-17T07:54:18.948Z,989.39
2018-01-17T07:55:19.559Z,989.30
2018-01-17T07:56:20.197Z,989.38
2018-01-17T07:57:20.796Z,989.41
2018-01-17T07:58:21.394Z,989.44
2018-01-17T07:59:21.988Z,989.50
2018-01-17T08:00:22.585Z,989.44
2018-01-17T08:01:23.185Z,989.46
2018-01-17T08:02:23.794Z,989.51
2018-01-17T08:03:24.399Z,989.46
2018-01-17T08:04:24.990Z,989.51
2018-01-17T08:05:25.620Z,989.60
2018-01-17T08:06:26.186Z,989.66
2018-01-17T08:07:26.823Z,989.67
2018-01-17T08:08:27.373Z,989.71
2018-01-17T08:09:27.970Z,989.70
2018-01-17T08:10:28.575Z,989.86
2018-01-17T08:11:29.173Z,989.79
2018-01-17T08:12:29.763Z,989.79
2018-01-17T08:13:30.357Z,989.73
2018-01-17T08:14:30.958Z,989.74
2018-01-17T08:15:31.551Z,989.79
2018-01-17T08:16:32.150Z,989.80
2018-01-17T08:17:32.756Z,989.88
2018-01-17T08:18:33.360Z,989.92
2018-01-17T08:19:33.958Z,989.94
2018-01-17T08:20:34.631Z,989.90
2018-01-17T08:21:35.191Z,989.93
2018-01-17T08:22:35.781Z,989.95
2018-01-17T08:23:36.379Z,989.90
2018-01-17T08:24:36.972Z,989.93
2018-01-17T08:25:37.572Z,989.99
2018-01-17T08:26:38.173Z,989.97
2018-01-17T08:27:38.769Z,989.90
2018-01-17T08:28:39.376Z,989.86
2018-01-17T08:29:39.988Z,989.95
2018-01-17T08:30:40.587Z,989.97
2018-01-17T08:31:41.188Z,989.96
2018-01-17T08:32:41.793Z,989.98
2018-01-17T08:33:42.397Z,989.96
2018-01-17T08:34:43.010Z,989.94
2018-01-17T08:35:43.606Z,989.93
2018-01-17T08:36:44.201Z,989.92
2018-01-17T08:37:44.798Z,989.98
2018-01-17T08:38:45.393Z,990.02
2018-01-17T08:39:45.985Z,990.09
2018-01-17T08:40:46.593Z,990.02
2018-01-17T08:41:47.211Z,990.05
2018-01-17T08:42:47.812Z,990.14
2018-01-17T08:43:48.410Z,990.21
2018-01-17T08:44:49.015Z,990.21
2018-01-17T08:45:49.623Z,990.28
2018-01-17T08:46:50.234Z,990.23
2018-01-17T08:47:50.876Z,990.30
2018-01-17T08:48:51.510Z,990.26
2018-01-17T08:49:52.112Z,990.31
2018-01-17T08:50:52.717Z,990.21
2018-01-17T08:51:53.349Z,990.24
2018-01-17T08:52:53.949Z,990.41
2018-01-17T08:53:54.557Z,990.49
2018-01-17T08:54:55.163Z,990.46
2018-01-17T08:55:55.770Z,990.55
2018-01-17T08:56:56.389Z,990.58
2018-01-17T08:57:57.005Z,990.61
2018-01-17T08:58:57.616Z,990.49
2018-01-17T08:59:58.218Z,990.48
2018-01-17T09:00:58.810Z,990.58
2018-01-17T09:01:59.407Z,990.55
2018-01-17T09:03:00.013Z,990.53
2018-01-17T09:04:00.621Z,990.63
2018-01-17T09:05:01.219Z,990.65
2018-01-17T09:06:01.844Z,990.57
2018-01-17T09:07:02.414Z,990.56
2018-01-17T09:08:03.014Z,990.65
2018-01-17T09:09:03.618Z,990.67
2018-01-17T09:10:04.222Z,990.74
2018-01-17T09:11:04.835Z,990.67
2018-01-17T09:12:05.448Z,990.77
2018-01-17T09:13:06.059Z,990.80
2018-01-17T09:14:06.651Z,990.72
2018-01-17T09:15:07.265Z,990.79
2018-01-17T09:16:07.880Z,990.74
2018-01-17T09:17:08.535Z,990.89
2018-01-17T09:18:09.126Z,990.70
2018-01-17T09:19:09.729Z,990.88
2018-01-17T09:20:10.365Z,990.88
2018-01-17T09:21:10.981Z,990.88
2018-01-17T09:22:11.612Z,990.89
2018-01-17T09:23:12.178Z,990.94
2018-01-17T09:24:12.774Z,990.82
2018-01-17T09:25:13.390Z,990.89
2018-01-17T09:26:14.007Z,990.59
2018-01-17T09:27:14.603Z,990.70
2018-01-17T09:28:15.201Z,990.71
2018-01-17T09:29:15.791Z,990.56
2018-01-17T09:30:16.396Z,990.49
2018-01-17T09:31:17.001Z,990.69
2018-01-17T09:32:17.598Z,990.46
2018-01-17T09:33:18.186Z,990.54
2018-01-17T09:34:18.792Z,990.58
2018-01-17T09:35:19.399Z,990.70
2018-01-17T09:36:19.999Z,990.74
2018-01-17T09:37:20.603Z,990.80
2018-01-17T09:38:21.200Z,990.70
2018-01-17T09:39:21.792Z,990.62
2018-01-17T09:40:22.403Z,990.92
2018-01-17T09:41:22.990Z,991.04
2018-01-17T09:42:23.583Z,991.15
2018-01-17T09:43:24.179Z,990.92
2018-01-17T09:44:24.793Z,991.17
2018-01-17T09:45:25.402Z,991.21
2018-01-17T09:46:26.011Z,991.09
2018-01-17T09:47:26.608Z,991.07
2018-01-17T09:48:27.213Z,991.34
2018-01-17T09:49:27.823Z,991.32
2018-01-17T09:50:28.436Z,991.33
2018-01-17T09:51:29.040Z,991.40
2018-01-17T09:52:29.655Z,991.41
2018-01-17T09:53:30.277Z,991.45
2018-01-17T09:54:30.905Z,991.45
2018-01-17T09:55:31.728Z,991.50
2018-01-17T09:56:32.332Z,991.48
2018-01-17T09:57:32.927Z,991.38
2018-01-17T09:58:33.531Z,991.53
2018-01-17T09:59:34.132Z,991.60
2018-01-17T10:00:34.744Z,991.65
2018-01-17T10:01:35.347Z,991.64
2018-01-17T10:02:35.937Z,991.72
2018-01-17T10:03:36.543Z,991.65
2018-01-17T10:04:37.138Z,991.68
2018-01-17T10:05:37.742Z,991.46
2018-01-17T10:06:38.336Z,991.62
2018-01-17T10:07:38.942Z,991.58
2018-01-17T10:08:39.551Z,991.63
2018-01-17T10:09:40.155Z,991.57
2018-01-17T10:10:40.762Z,991.57
2018-01-17T10:11:41.360Z,991.68
2018-01-17T10:12:41.956Z,991.69
2018-01-17T10:13:42.561Z,991.68
2018-01-17T10:14:43.172Z,991.69
2018-01-17T10:15:43.766Z,991.66
2018-01-17T10:16:44.367Z,991.74
2018-01-17T10:17:44.969Z,991.58
2018-01-17T10:18:45.570Z,991.80
2018-01-17T10:19:46.175Z,991.78
2018-01-17T10:20:46.773Z,991.83
2018-01-17T10:21:47.384Z,991.83
2018-01-17T10:22:47.979Z,991.90
2018-01-17T10:23:48.593Z,991.84
2018-01-17T10:24:49.200Z,991.80
2018-01-17T10:25:49.797Z,991.91
2018-01-17T10:26:50.409Z,991.98
2018-01-17T10:27:50.999Z,991.92
2018-01-17T10:28:51.608Z,991.92
2018-01-17T10:29:52.213Z,992.03
2018-01-17T10:30:52.810Z,992.03
2018-01-17T10:31:53.414Z,992.03
2018-01-17T10:32:54.015Z,992.01
2018-01-17T10:33:54.616Z,992.09
2018-01-17T10:34:55.212Z,992.10
2018-01-17T10:35:55.821Z,992.13
2018-01-17T10:36:56.412Z,992.09
2018-01-17T10:37:57.018Z,992.10
2018-01-17T10:38:57.632Z,992.14
2018-01-17T10:39:58.244Z,992.22
2018-01-17T10:40:58.847Z,992.13
2018-01-17T10:41:59.447Z,992.18
2018-01-17T10:43:00.062Z,992.32
2018-01-17T10:44:00.669Z,992.28
2018-01-17T10:45:01.280Z,992.19
2018-01-17T10:46:01.880Z,992.22
2018-01-17T10:47:02.489Z,992.14
2018-01-17T10:48:03.094Z,992.25
2018-01-17T10:49:03.698Z,992.28
2018-01-17T10:50:04.394Z,992.13
2018-01-17T10:51:04.988Z,992.28
2018-01-17T10:52:05.590Z,992.22
2018-01-17T10:53:06.188Z,992.27
2018-01-17T10:54:06.789Z,992.29
2018-01-17T10:55:07.400Z,992.26
2018-01-17T10:56:08.001Z,992.32
2018-01-17T10:57:08.616Z,992.11
2018-01-17T10:58:09.225Z,992.30
2018-01-17T10:59:09.843Z,992.27
2018-01-17T11:00:10.466Z,992.30
2018-01-17T11:01:11.062Z,992.16
2018-01-17T11:02:11.662Z,992.30
2018-01-17T11:03:12.254Z,992.36
2018-01-17T11:04:12.861Z,992.37
2018-01-17T11:05:13.471Z,992.38
2018-01-17T11:06:14.078Z,992.35
2018-01-17T11:07:14.690Z,992.40
2018-01-17T11:08:15.299Z,992.45
2018-01-17T11:09:15.913Z,992.48
2018-01-17T11:10:16.516Z,992.34
2018-01-17T11:11:17.118Z,992.45
2018-01-17T11:12:17.736Z,992.51
2018-01-17T11:13:18.353Z,992.41
2018-01-17T11:14:19.194Z,992.52
2018-01-17T11:15:19.798Z,992.41
2018-01-17T11:16:20.422Z,992.41
2018-01-17T11:17:21.028Z,992.51
2018-01-17T11:18:21.638Z,992.54
2018-01-17T11:19:22.246Z,992.48
2018-01-17T11:20:22.864Z,992.54
2018-01-17T11:21:23.456Z,992.47
2018-01-17T11:22:24.076Z,992.56
2018-01-17T11:23:24.688Z,992.44
2018-01-17T11:24:25.307Z,992.54
2018-01-17T11:25:26.054Z,992.59
2018-01-17T11:26:26.655Z,992.56
2018-01-17T11:27:27.277Z,992.59
2018-01-17T11:28:27.899Z,992.47
2018-01-17T11:29:28.524Z,992.48
2018-01-17T11:30:29.149Z,992.59
2018-01-17T11:31:29.744Z,992.58
2018-01-17T11:32:30.365Z,992.62
2018-01-17T11:33:30.995Z,992.61
2018-01-17T11:34:31.847Z,992.57
2018-01-17T11:35:32.490Z,992.65
2018-01-17T11:36:33.090Z,992.40
2018-01-17T11:37:33.704Z,992.54
2018-01-17T11:38:34.325Z,992.58
2018-01-17T11:39:35.156Z,992.57
2018-01-17T11:40:35.759Z,992.61
2018-01-17T11:41:36.369Z,992.66
2018-01-17T11:42:36.989Z,992.49
2018-01-17T11:43:37.617Z,992.50
2018-01-17T11:44:38.219Z,992.36
2018-01-17T11:45:38.823Z,992.43
2018-01-17T11:46:39.442Z,992.54
2018-01-17T11:47:40.054Z,992.52
2018-01-17T11:48:40.662Z,992.57
2018-01-17T11:49:41.257Z,992.59
2018-01-17T11:50:41.880Z,992.59
2018-01-17T11:51:42.480Z,992.43
2018-01-17T11:52:43.092Z,992.65
2018-01-17T11:53:43.696Z,992.48
2018-01-17T11:54:44.309Z,992.69
2018-01-17T11:55:44.930Z,992.68
2018-01-17T11:56:45.538Z,992.71
2018-01-17T11:57:46.150Z,992.70
2018-01-17T11:58:46.756Z,992.71
2018-01-17T11:59:47.382Z,992.66
2018-01-17T12:00:48.014Z,992.72
2018-01-17T12:01:48.846Z,992.60
2018-01-17T12:02:49.447Z,992.69
2018-01-17T12:03:50.265Z,992.76
2018-01-17T12:04:50.884Z,992.82
2018-01-17T12:05:51.499Z,992.71
2018-01-17T12:06:52.116Z,992.89
2018-01-17T12:07:52.727Z,992.78
2018-01-17T12:08:53.341Z,992.84
2018-01-17T12:09:53.949Z,992.94
2018-01-17T12:10:54.559Z,993.00
2018-01-17T12:11:55.168Z,993.04
2018-01-17T12:12:55.781Z,992.87
2018-01-17T12:13:56.395Z,992.92
2018-01-17T12:14:57.001Z,992.80
2018-01-17T12:15:57.603Z,992.84
2018-01-17T12:16:58.212Z,992.95
2018-01-17T12:17:58.831Z,992.82
2018-01-17T12:18:59.447Z,992.85
2018-01-17T12:20:00.060Z,992.94
2018-01-17T12:21:00.670Z,992.92
2018-01-17T12:22:01.289Z,992.88
2018-01-17T12:23:01.919Z,992.98
2018-01-17T12:24:02.548Z,992.96
2018-01-17T12:25:03.170Z,993.05
2018-01-17T12:26:03.915Z,992.99
2018-01-17T12:27:04.526Z,993.05
2018-01-17T12:28:05.226Z,992.87
2018-01-17T12:29:05.780Z,993.07
2018-01-17T12:30:06.398Z,993.10
2018-01-17T12:31:07.018Z,993.10
2018-01-17T12:32:07.757Z,993.13
2018-01-17T12:33:08.374Z,993.03
2018-01-17T12:34:08.989Z,993.15
2018-01-17T12:35:09.593Z,993.11
2018-01-17T12:36:10.197Z,993.18